Time;durP1;ratioP1;P1;durP2;ratioP2;P2;SDS_P1;SDS_P2;PMS_P1;PMS_P2;Temp;Humidity;BMP_temperature;BMP_pressure;BME280_temperature;BME280_humidity;BME280_pressure;Samples;Min_cycle;Max_cycle;Signal;HPM_P1;HPM_P2
2022/01/27 00:07:43;;;;;;;35.22;15.30;;;;;;;;;;5067864;28;20645;-77
2022/01/27 00:10:24;;;;;;;34.10;14.93;;;;;;;;;;5067538;28;20036;-77
2022/01/27 00:12:51;;;;;;;34.45;15.02;;;;;;;;;;5068054;28;20052;-77
2022/01/27 00:15:22;;;;;;;33.67;14.27;;;;;;;;;;5067676;28;20052;-77
2022/01/27 00:17:57;;;;;;;36.15;15.30;;;;;;;;;;5067673;28;20040;-76
2022/01/27 00:20:23;;;;;;;36.83;14.85;;;;;;;;;;5051124;28;20094;-77
2022/01/27 00:22:49;;;;;;;32.92;14.48;;;;;;;;;;5067739;28;20775;-77
2022/01/27 00:25:15;;;;;;;37.58;14.95;;;;;;;;;;5050855;28;20064;-76
2022/01/27 00:27:41;;;;;;;34.97;14.93;;;;;;;;;;5068287;28;20109;-76
2022/01/27 00:30:09;;;;;;;35.58;14.80;;;;;;;;;;5067603;28;20615;-77
2022/01/27 00:32:35;;;;;;;39.75;15.45;;;;;;;;;;5067794;28;20041;-77
2022/01/27 00:35:01;;;;;;;34.50;14.77;;;;;;;;;;5066946;28;20044;-77
2022/01/27 00:37:27;;;;;;;34.67;13.52;;;;;;;;;;5067459;28;20117;-77
2022/01/27 00:39:54;;;;;;;31.52;14.68;;;;;;;;;;5050756;28;20043;-77
2022/01/27 00:42:20;;;;;;;34.08;14.30;;;;;;;;;;5068317;28;20507;-77
2022/01/27 00:44:46;;;;;;;34.63;15.15;;;;;;;;;;5055419;28;20037;-77
2022/01/27 00:47:12;;;;;;;37.80;15.07;;;;;;;;;;5071249;28;20522;-77
2022/01/27 00:49:38;;;;;;;36.55;15.27;;;;;;;;;;5054796;28;20048;-76
2022/01/27 00:52:09;;;;;;;34.65;14.50;;;;;;;;;;5071060;28;20046;-77
2022/01/27 00:54:35;;;;;;;38.05;15.00;;;;;;;;;;5071660;28;20492;-76
2022/01/27 00:59:50;;;;;;;36.72;15.30;;;;;;;;;;5071822;28;20484;-77
2022/01/27 01:08:07;;;;;;;31.92;14.18;;;;;;;;;;5070565;28;20044;-77
2022/01/27 01:15:47;;;;;;;36.67;15.18;;;;;;;;;;5071357;28;20048;-76
2022/01/27 01:31:33;;;;;;;38.05;16.70;;;;;;;;;;5070869;28;20048;-77
2022/01/27 01:34:13;;;;;;;42.15;16.63;;;;;;;;;;5053509;28;20044;-77
2022/01/27 01:37:23;;;;;;;36.85;18.52;;;;;;;;;;5070703;28;20049;-76
2022/01/27 01:39:31;;;;;;;40.10;18.23;;;;;;;;;;5062316;28;20048;-77
2022/01/27 01:41:58;;;;;;;43.35;18.52;;;;;;;;;;5053500;28;20080;-77
2022/01/27 01:44:24;;;;;;;44.45;16.10;;;;;;;;;;5070777;28;20450;-76
2022/01/27 01:46:51;;;;;;;38.80;17.02;;;;;;;;;;5071005;28;20044;-77
2022/01/27 01:49:17;;;;;;;38.92;17.67;;;;;;;;;;5053063;28;20047;-77
2022/01/27 01:51:43;;;;;;;37.97;16.40;;;;;;;;;;5070328;28;20044;-77
2022/01/27 01:54:10;;;;;;;36.63;16.30;;;;;;;;;;5052117;28;20114;-77
2022/01/27 01:56:37;;;;;;;38.15;17.13;;;;;;;;;;5070341;28;20109;-76
2022/01/27 01:59:05;;;;;;;35.50;16.25;;;;;;;;;;5069542;28;20056;-77
2022/01/27 02:01:32;;;;;;;35.78;17.15;;;;;;;;;;5070245;28;20080;-77
2022/01/27 02:04:02;;;;;;;38.13;16.58;;;;;;;;;;5070164;28;20484;-77
2022/01/27 02:06:36;;;;;;;39.13;16.98;;;;;;;;;;5070362;28;20060;-76
2022/01/27 02:19:52;;;;;;;43.58;18.05;;;;;;;;;;5069449;28;20393;-77
2022/01/27 02:22:19;;;;;;;38.13;16.73;;;;;;;;;;5069349;28;20053;-77
2022/01/27 02:24:45;;;;;;;43.78;19.67;;;;;;;;;;5069645;28;20032;-76
2022/01/27 02:27:11;;;;;;;42.92;19.58;;;;;;;;;;5069157;28;20033;-76
2022/01/27 02:29:38;;;;;;;37.45;19.27;;;;;;;;;;5069260;28;20050;-77
2022/01/27 02:32:04;;;;;;;41.25;19.27;;;;;;;;;;5068539;28;20048;-77
2022/01/27 02:34:30;;;;;;;38.95;18.70;;;;;;;;;;5069324;28;20373;-77
2022/01/27 02:36:57;;;;;;;36.40;18.85;;;;;;;;;;5069876;28;20539;-77
2022/01/27 02:39:23;;;;;;;43.38;18.40;;;;;;;;;;5069260;28;20056;-77
2022/01/27 02:41:49;;;;;;;40.33;19.42;;;;;;;;;;5041573;28;20106;-77
2022/01/27 02:44:34;;;;;;;44.92;19.52;;;;;;;;;;5048910;28;20136;-77
2022/01/27 02:47:01;;;;;;;40.40;17.50;;;;;;;;;;5032511;28;20045;-77
2022/01/27 02:49:27;;;;;;;41.00;19.95;;;;;;;;;;5050569;28;20063;-77
2022/01/27 02:51:53;;;;;;;50.42;20.38;;;;;;;;;;5061732;28;20102;-77
2022/01/27 02:54:20;;;;;;;44.25;19.08;;;;;;;;;;5052054;28;20052;-77
2022/01/27 02:56:47;;;;;;;40.55;18.23;;;;;;;;;;5069874;28;20070;-77
2022/01/27 02:59:17;;;;;;;41.75;18.08;;;;;;;;;;5068570;28;20074;-77
2022/01/27 03:01:47;;;;;;;40.97;19.20;;;;;;;;;;5065287;28;20158;-77
2022/01/27 03:04:13;;;;;;;45.83;19.17;;;;;;;;;;5067804;28;20036;-77
2022/01/27 03:06:39;;;;;;;40.58;16.73;;;;;;;;;;5067503;28;20335;-76
2022/01/27 03:09:05;;;;;;;45.05;18.38;;;;;;;;;;5068511;28;20044;-77
2022/01/27 03:11:43;;;;;;;41.00;19.27;;;;;;;;;;5068019;28;20090;-77
2022/01/27 03:14:10;;;;;;;40.40;18.63;;;;;;;;;;5050977;28;20057;-77
2022/01/27 03:16:36;;;;;;;45.65;18.40;;;;;;;;;;5068701;28;20051;-77
2022/01/27 03:19:02;;;;;;;39.85;17.52;;;;;;;;;;5068005;28;20106;-77
2022/01/27 03:21:28;;;;;;;42.78;18.42;;;;;;;;;;5068583;28;20155;-77
2022/01/27 03:23:55;;;;;;;40.88;18.40;;;;;;;;;;5052032;28;20044;-77
2022/01/27 03:26:22;;;;;;;34.60;17.13;;;;;;;;;;5068290;28;20764;-77
2022/01/27 03:28:48;;;;;;;40.40;17.60;;;;;;;;;;5068048;28;20055;-77
2022/01/27 03:31:14;;;;;;;41.65;16.60;;;;;;;;;;5051565;28;20506;-77
2022/01/27 03:33:41;;;;;;;38.78;17.50;;;;;;;;;;5052053;28;20251;-77
2022/01/27 03:36:07;;;;;;;39.63;17.92;;;;;;;;;;5067724;28;20068;-77
2022/01/27 03:38:33;;;;;;;46.85;17.83;;;;;;;;;;5068068;28;20037;-77
2022/01/27 03:41:04;;;;;;;41.17;17.55;;;;;;;;;;5067856;28;20108;-77
2022/01/27 03:43:30;;;;;;;36.50;16.83;;;;;;;;;;5051416;28;20052;-77
2022/01/27 03:45:56;;;;;;;38.65;17.55;;;;;;;;;;5068226;28;20094;-77
2022/01/27 03:48:22;;;;;;;43.80;18.15;;;;;;;;;;5067755;28;20044;-76
2022/01/27 03:50:48;;;;;;;44.20;17.58;;;;;;;;;;5068157;28;20611;-77
2022/01/27 03:53:15;;;;;;;36.83;16.10;;;;;;;;;;5050346;28;20093;-76
2022/01/27 03:55:41;;;;;;;35.35;15.95;;;;;;;;;;5051411;28;20048;-77
2022/01/27 03:58:07;;;;;;;40.40;16.40;;;;;;;;;;5067531;28;20086;-76
2022/01/27 04:00:34;;;;;;;35.55;16.98;;;;;;;;;;5068269;28;20040;-77
2022/01/27 04:03:04;;;;;;;39.97;16.98;;;;;;;;;;5050916;28;20055;-76
2022/01/27 04:05:36;;;;;;;38.63;17.30;;;;;;;;;;5052008;28;20041;-77
2022/01/27 04:08:02;;;;;;;34.70;16.40;;;;;;;;;;5067537;28;20048;-77
2022/01/27 04:10:29;;;;;;;38.40;16.05;;;;;;;;;;5051246;28;20090;-77
2022/01/27 04:12:55;;;;;;;37.30;16.45;;;;;;;;;;5067766;28;20044;-78
2022/01/27 04:15:21;;;;;;;33.70;15.98;;;;;;;;;;5067848;28;20480;-77
2022/01/27 04:17:47;;;;;;;35.85;15.60;;;;;;;;;;5050503;28;20048;-77
2022/01/27 04:20:14;;;;;;;38.67;16.27;;;;;;;;;;5067144;28;20132;-77
2022/01/27 04:22:40;;;;;;;37.85;15.95;;;;;;;;;;5067279;28;20090;-77
2022/01/27 04:25:06;;;;;;;36.35;16.67;;;;;;;;;;5067012;28;20048;-77
2022/01/27 04:27:36;;;;;;;37.97;15.73;;;;;;;;;;5067657;28;20123;-76
2022/01/27 04:30:04;;;;;;;43.25;15.98;;;;;;;;;;5050651;28;20488;-77
2022/01/27 04:32:38;;;;;;;35.75;17.00;;;;;;;;;;5067981;28;20453;-77
2022/01/27 04:35:07;;;;;;;35.47;17.50;;;;;;;;;;5067750;28;20135;-77
2022/01/27 04:37:39;;;;;;;43.35;16.17;;;;;;;;;;5068348;28;20041;-77
2022/01/27 04:40:14;;;;;;;37.47;15.43;;;;;;;;;;5067498;28;20070;-77
2022/01/27 04:42:57;;;;;;;34.83;15.55;;;;;;;;;;5067394;28;20048;-77
2022/01/27 04:45:28;;;;;;;34.92;14.77;;;;;;;;;;5068244;28;20377;-77
2022/01/27 04:48:05;;;;;;;38.10;13.55;;;;;;;;;;5067215;28;20498;-77
2022/01/27 04:50:31;;;;;;;40.08;15.82;;;;;;;;;;5067314;28;20503;-77
2022/01/27 04:52:59;;;;;;;37.92;16.48;;;;;;;;;;5067612;28;20460;-77
2022/01/27 04:55:25;;;;;;;37.13;16.48;;;;;;;;;;5067404;28;20045;-77
2022/01/27 04:58:05;;;;;;;36.50;15.30;;;;;;;;;;5033968;28;20044;-77
2022/01/27 05:00:31;;;;;;;36.75;14.88;;;;;;;;;;5067589;28;20049;-77
2022/01/27 05:02:59;;;;;;;34.55;14.63;;;;;;;;;;5060898;28;20072;-77
2022/01/27 05:05:26;;;;;;;34.00;14.90;;;;;;;;;;5049846;28;20044;-76
2022/01/27 05:08:01;;;;;;;36.92;14.13;;;;;;;;;;5066615;28;20047;-77
2022/01/27 05:10:32;;;;;;;33.95;13.48;;;;;;;;;;5067475;28;20511;-76
2022/01/27 05:13:09;;;;;;;39.05;14.70;;;;;;;;;;5050826;28;20049;-77
2022/01/27 05:15:42;;;;;;;36.55;14.48;;;;;;;;;;5067349;28;20052;-77
2022/01/27 05:18:08;;;;;;;30.70;13.45;;;;;;;;;;5066715;28;20061;-77
2022/01/27 05:20:34;;;;;;;35.78;14.25;;;;;;;;;;5067280;28;20044;-76
2022/01/27 05:23:00;;;;;;;35.47;13.68;;;;;;;;;;5066788;28;20515;-77
2022/01/27 05:25:27;;;;;;;34.63;13.05;;;;;;;;;;5067679;28;20480;-76
2022/01/27 05:27:53;;;;;;;35.85;13.82;;;;;;;;;;5067232;28;20051;-77
2022/01/27 05:30:19;;;;;;;35.08;13.05;;;;;;;;;;5068525;28;20459;-77
2022/01/27 05:32:45;;;;;;;36.78;13.73;;;;;;;;;;5070788;28;20137;-77
2022/01/27 05:35:11;;;;;;;38.92;13.65;;;;;;;;;;5070461;28;20488;-77
2022/01/27 05:37:37;;;;;;;34.38;13.75;;;;;;;;;;5070423;28;20051;-77
2022/01/27 05:40:03;;;;;;;33.58;12.57;;;;;;;;;;5070068;28;20044;-77
2022/01/27 05:42:29;;;;;;;36.92;14.38;;;;;;;;;;5070367;28;20044;-77
2022/01/27 05:44:55;;;;;;;38.38;13.73;;;;;;;;;;5054051;28;20044;-76
2022/01/27 05:47:21;;;;;;;42.13;13.90;;;;;;;;;;5070016;28;20079;-76
2022/01/27 05:49:48;;;;;;;34.75;14.55;;;;;;;;;;5037006;28;20044;-77
2022/01/27 05:52:14;;;;;;;42.63;15.00;;;;;;;;;;5070166;28;20601;-77
2022/01/27 05:54:42;;;;;;;34.72;13.82;;;;;;;;;;5053917;28;20086;-77
2022/01/27 05:57:08;;;;;;;35.15;14.15;;;;;;;;;;5070273;28;20469;-77
2022/01/27 05:59:34;;;;;;;40.55;13.90;;;;;;;;;;5070075;28;20045;-77
2022/01/27 06:02:00;;;;;;;38.10;13.18;;;;;;;;;;5052731;28;20045;-77
2022/01/27 06:04:27;;;;;;;40.33;13.70;;;;;;;;;;5071433;28;20148;-76
2022/01/27 06:06:53;;;;;;;37.63;12.80;;;;;;;;;;5053796;28;20500;-77
2022/01/27 06:09:19;;;;;;;38.72;12.65;;;;;;;;;;5070935;28;20076;-77
2022/01/27 06:11:46;;;;;;;35.80;13.18;;;;;;;;;;5052942;28;20058;-76
2022/01/27 06:14:12;;;;;;;36.10;12.70;;;;;;;;;;5052943;28;20118;-77
2022/01/27 06:16:38;;;;;;;34.35;13.70;;;;;;;;;;5053314;28;20076;-76
2022/01/27 06:19:06;;;;;;;44.97;13.32;;;;;;;;;;5068927;28;20056;-76
2022/01/27 06:21:35;;;;;;;42.50;14.13;;;;;;;;;;5069518;28;20048;-76
2022/01/27 06:24:01;;;;;;;40.85;13.55;;;;;;;;;;5069461;28;20455;-76
2022/01/27 06:26:30;;;;;;;47.25;14.32;;;;;;;;;;5069636;28;20079;-76
2022/01/27 06:28:56;;;;;;;40.90;12.77;;;;;;;;;;5069809;28;20374;-76
2022/01/27 06:31:23;;;;;;;42.28;14.88;;;;;;;;;;5052647;28;20049;-76
2022/01/27 06:33:49;;;;;;;41.90;14.02;;;;;;;;;;5069562;28;20032;-76
2022/01/27 06:36:15;;;;;;;46.83;14.65;;;;;;;;;;5052375;28;20040;-76
2022/01/27 06:38:42;;;;;;;45.63;14.93;;;;;;;;;;5069453;28;20045;-76
2022/01/27 06:41:08;;;;;;;40.67;15.02;;;;;;;;;;5051693;28;20120;-76
2022/01/27 06:43:34;;;;;;;46.25;15.07;;;;;;;;;;5070614;28;20045;-76
2022/01/27 06:46:00;;;;;;;45.22;14.20;;;;;;;;;;5069467;28;20044;-76
2022/01/27 06:48:26;;;;;;;40.17;14.95;;;;;;;;;;5052572;28;20041;-76
2022/01/27 06:50:54;;;;;;;48.30;15.38;;;;;;;;;;5069043;28;20068;-76
2022/01/27 06:53:21;;;;;;;41.13;14.75;;;;;;;;;;5052739;28;20072;-76
2022/01/27 06:55:48;;;;;;;44.38;15.77;;;;;;;;;;5052587;28;20045;-76
2022/01/27 06:58:14;;;;;;;41.50;15.85;;;;;;;;;;5068547;28;20291;-76
2022/01/27 07:00:40;;;;;;;50.80;16.70;;;;;;;;;;5070119;28;20114;-77
2022/01/27 07:03:06;;;;;;;50.72;15.57;;;;;;;;;;5069682;28;20044;-76
2022/01/27 07:05:33;;;;;;;44.83;15.68;;;;;;;;;;5068958;28;20094;-76
2022/01/27 07:08:00;;;;;;;45.65;15.80;;;;;;;;;;5069116;28;20048;-76
2022/01/27 07:10:26;;;;;;;44.55;15.25;;;;;;;;;;5068375;28;20037;-75
2022/01/27 07:12:52;;;;;;;54.40;15.65;;;;;;;;;;5068680;28;20078;-76
2022/01/27 07:15:19;;;;;;;45.50;15.07;;;;;;;;;;5051709;28;20495;-76
2022/01/27 07:17:46;;;;;;;50.08;15.80;;;;;;;;;;5069368;28;20044;-76
2022/01/27 07:20:13;;;;;;;42.20;14.80;;;;;;;;;;5067790;28;20049;-76
2022/01/27 07:22:39;;;;;;;51.42;15.43;;;;;;;;;;5068464;28;20443;-77
2022/01/27 07:25:06;;;;;;;47.30;15.18;;;;;;;;;;5067941;28;20044;-76
2022/01/27 07:27:32;;;;;;;52.22;16.48;;;;;;;;;;5068569;28;20036;-76
2022/01/27 07:29:58;;;;;;;48.65;15.55;;;;;;;;;;5067991;28;20043;-76
2022/01/27 07:32:25;;;;;;;49.45;15.23;;;;;;;;;;5068045;28;20051;-76
2022/01/27 07:34:51;;;;;;;45.67;15.73;;;;;;;;;;5069728;28;20044;-76
2022/01/27 07:37:17;;;;;;;45.53;15.13;;;;;;;;;;5067932;28;20044;-77
2022/01/27 07:39:43;;;;;;;53.58;14.95;;;;;;;;;;5069467;28;20396;-76
2022/01/27 07:42:09;;;;;;;46.42;14.43;;;;;;;;;;5051167;28;20048;-77
2022/01/27 07:44:36;;;;;;;53.30;15.30;;;;;;;;;;5068106;28;20128;-76
2022/01/27 07:47:02;;;;;;;44.05;13.85;;;;;;;;;;5051139;28;20032;-76
2022/01/27 07:49:31;;;;;;;48.97;16.15;;;;;;;;;;5051568;28;20041;-76
2022/01/27 07:51:58;;;;;;;40.08;14.15;;;;;;;;;;5067480;28;20080;-76
2022/01/27 07:54:24;;;;;;;49.00;13.63;;;;;;;;;;5067647;28;20040;-76
2022/01/27 07:56:50;;;;;;;42.97;13.68;;;;;;;;;;5067969;28;20048;-76
2022/01/27 07:59:16;;;;;;;38.10;13.18;;;;;;;;;;5067809;28;20048;-76
2022/01/27 08:01:42;;;;;;;44.03;13.35;;;;;;;;;;5067794;28;20045;-76
2022/01/27 08:04:08;;;;;;;39.90;12.95;;;;;;;;;;5067505;28;20033;-76
2022/01/27 08:06:34;;;;;;;35.58;13.00;;;;;;;;;;5068045;28;20091;-77
2022/01/27 08:09:00;;;;;;;39.25;12.40;;;;;;;;;;5067659;28;20043;-76
2022/01/27 08:11:26;;;;;;;36.42;12.00;;;;;;;;;;5067925;28;20435;-76
2022/01/27 08:13:53;;;;;;;42.92;11.88;;;;;;;;;;5067966;28;20075;-77
2022/01/27 08:16:19;;;;;;;38.08;10.95;;;;;;;;;;5067657;28;20051;-77
2022/01/27 08:18:45;;;;;;;40.38;11.73;;;;;;;;;;5084252;28;20048;-76
2022/01/27 08:21:11;;;;;;;41.67;11.18;;;;;;;;;;5050567;28;20040;-76
2022/01/27 08:23:40;;;;;;;33.15;11.50;;;;;;;;;;5067575;28;20492;-76
2022/01/27 08:26:08;;;;;;;34.85;11.10;;;;;;;;;;5067175;28;20089;-76
2022/01/27 08:28:50;;;;;;;34.58;11.25;;;;;;;;;;5067807;28;20048;-77
2022/01/27 08:31:16;;;;;;;40.78;11.43;;;;;;;;;;5067291;28;20136;-77
2022/01/27 08:33:42;;;;;;;33.28;10.10;;;;;;;;;;5067517;28;20105;-77
2022/01/27 08:36:09;;;;;;;28.35;10.70;;;;;;;;;;5067348;28;20174;-77
2022/01/27 08:38:37;;;;;;;36.13;10.93;;;;;;;;;;5067368;28;20135;-77
2022/01/27 08:41:04;;;;;;;31.55;11.85;;;;;;;;;;5067027;28;20075;-76
2022/01/27 08:43:30;;;;;;;36.67;10.80;;;;;;;;;;5068922;28;20206;-77
2022/01/27 08:45:58;;;;;;;27.70;9.95;;;;;;;;;;5067033;28;20105;-76
2022/01/27 08:48:27;;;;;;;34.03;9.18;;;;;;;;;;5067589;28;20044;-77
2022/01/27 08:51:00;;;;;;;26.13;9.48;;;;;;;;;;5051302;28;20048;-76
2022/01/27 08:53:26;;;;;;;34.28;9.02;;;;;;;;;;5050482;28;20089;-77
2022/01/27 08:55:53;;;;;;;26.33;8.20;;;;;;;;;;5067707;28;20045;-77
2022/01/27 08:58:20;;;;;;;21.27;7.65;;;;;;;;;;5034410;28;20528;-76
2022/01/27 09:00:47;;;;;;;21.90;7.28;;;;;;;;;;5068735;28;20045;-76
2022/01/27 09:03:13;;;;;;;24.35;7.82;;;;;;;;;;5067188;28;20356;-76
2022/01/27 09:05:40;;;;;;;26.98;7.68;;;;;;;;;;5070911;28;20040;-77
2022/01/27 09:08:07;;;;;;;23.35;7.07;;;;;;;;;;5070500;28;20523;-77
2022/01/27 09:10:33;;;;;;;22.13;7.38;;;;;;;;;;5071088;28;20416;-76
2022/01/27 09:13:00;;;;;;;22.70;6.85;;;;;;;;;;5071322;28;20044;-76
2022/01/27 09:15:27;;;;;;;25.25;7.88;;;;;;;;;;5071251;28;20098;-76
2022/01/27 09:17:53;;;;;;;20.60;7.10;;;;;;;;;;5072289;28;20046;-76
2022/01/27 09:20:19;;;;;;;24.85;7.47;;;;;;;;;;5070276;28;20063;-76
2022/01/27 09:22:45;;;;;;;22.92;6.80;;;;;;;;;;5054062;28;20098;-76
2022/01/27 09:25:17;;;;;;;25.85;7.25;;;;;;;;;;5070365;28;20041;-76
2022/01/27 09:27:45;;;;;;;23.60;6.90;;;;;;;;;;5071024;28;20040;-76
2022/01/27 09:30:13;;;;;;;21.33;6.07;;;;;;;;;;5054193;28;20541;-76
2022/01/27 09:32:39;;;;;;;20.85;6.95;;;;;;;;;;5070316;28;20109;-76
2022/01/27 09:35:05;;;;;;;21.50;6.63;;;;;;;;;;5070181;28;21108;-76
2022/01/27 09:37:31;;;;;;;25.05;7.30;;;;;;;;;;5070630;28;20067;-76
2022/01/27 09:39:57;;;;;;;23.15;6.03;;;;;;;;;;5070585;28;20079;-76
2022/01/27 09:42:26;;;;;;;23.30;5.97;;;;;;;;;;5070508;28;20123;-76
2022/01/27 09:44:53;;;;;;;21.50;6.05;;;;;;;;;;5070728;28;20037;-76
2022/01/27 09:47:20;;;;;;;23.85;5.85;;;;;;;;;;5053069;28;20037;-76
2022/01/27 09:49:53;;;;;;;21.98;6.22;;;;;;;;;;5070742;28;20531;-76
2022/01/27 09:52:20;;;;;;;19.15;5.43;;;;;;;;;;5053086;28;20045;-77
2022/01/27 09:54:46;;;;;;;27.10;5.80;;;;;;;;;;5070261;28;20127;-76
2022/01/27 09:57:16;;;;;;;19.05;5.32;;;;;;;;;;5069755;28;20040;-76
2022/01/27 09:59:43;;;;;;;21.48;5.97;;;;;;;;;;5070232;28;20420;-76
2022/01/27 10:02:10;;;;;;;21.58;5.78;;;;;;;;;;5036368;28;20044;-76
2022/01/27 10:04:43;;;;;;;19.55;5.68;;;;;;;;;;5070635;28;20063;-76
2022/01/27 10:07:10;;;;;;;25.02;5.97;;;;;;;;;;5069943;28;20358;-76
2022/01/27 10:09:36;;;;;;;21.80;5.82;;;;;;;;;;5070275;28;20068;-76
2022/01/27 10:12:04;;;;;;;19.45;6.10;;;;;;;;;;5069928;28;20043;-76
2022/01/27 10:14:36;;;;;;;19.73;6.20;;;;;;;;;;5069531;28;20048;-76
2022/01/27 10:17:07;;;;;;;18.27;5.55;;;;;;;;;;5069632;28;20559;-76
2022/01/27 10:19:36;;;;;;;19.13;5.95;;;;;;;;;;5069963;28;20083;-76
2022/01/27 10:22:11;;;;;;;20.27;5.32;;;;;;;;;;5069744;28;20489;-76
2022/01/27 10:24:37;;;;;;;21.45;5.20;;;;;;;;;;5069690;28;20068;-76
2022/01/27 10:27:45;;;;;;;21.50;5.40;;;;;;;;;;5068541;28;20036;-76
2022/01/27 10:32:59;;;;;;;17.75;5.15;;;;;;;;;;5069716;28;20048;-76
2022/01/27 10:35:26;;;;;;;14.80;5.38;;;;;;;;;;5069248;28;20128;-76
2022/01/27 10:38:04;;;;;;;27.67;6.28;;;;;;;;;;5069622;28;20041;-76
2022/01/27 10:40:41;;;;;;;23.88;7.45;;;;;;;;;;5069893;28;20535;-76
2022/01/27 10:43:07;;;;;;;26.60;7.63;;;;;;;;;;5068983;28;20044;-77
2022/01/27 10:45:34;;;;;;;24.15;5.53;;;;;;;;;;5069697;28;20052;-76
2022/01/27 10:48:07;;;;;;;18.65;5.50;;;;;;;;;;5052514;28;20040;-77
2022/01/27 10:50:47;;;;;;;25.98;5.78;;;;;;;;;;5052892;28;20067;-77
2022/01/27 10:53:13;;;;;;;20.45;5.03;;;;;;;;;;5068998;28;20080;-76
2022/01/27 10:55:40;;;;;;;20.10;5.05;;;;;;;;;;5069275;28;20044;-76
2022/01/27 10:58:23;;;;;;;17.02;4.88;;;;;;;;;;5068873;28;20437;-76
2022/01/27 11:00:56;;;;;;;14.10;4.15;;;;;;;;;;5052489;28;20052;-76
2022/01/27 11:03:22;;;;;;;16.50;4.53;;;;;;;;;;5068450;28;20511;-76
2022/01/27 11:05:50;;;;;;;17.95;4.40;;;;;;;;;;5069320;28;20463;-76
2022/01/27 11:08:19;;;;;;;15.98;4.10;;;;;;;;;;5069623;28;20480;-77
2022/01/27 11:10:48;;;;;;;12.88;4.60;;;;;;;;;;5069923;28;20044;-76
2022/01/27 11:13:16;;;;;;;16.75;4.65;;;;;;;;;;5068336;28;20044;-76
2022/01/27 11:15:42;;;;;;;18.15;4.18;;;;;;;;;;5069117;28;20511;-76
2022/01/27 11:18:09;;;;;;;14.18;4.07;;;;;;;;;;5068246;28;20074;-76
2022/01/27 11:23:47;;;;;;;16.98;3.50;;;;;;;;;;5067717;28;20088;-77
2022/01/27 11:26:10;;;;;;;12.50;3.20;;;;;;;;;;5068134;28;20438;-76
2022/01/27 11:28:38;;;;;;;12.60;3.55;;;;;;;;;;5068636;28;20415;-77
2022/01/27 11:31:42;;;;;;;14.65;3.00;;;;;;;;;;5069308;28;20519;-77
2022/01/27 11:34:10;;;;;;;11.32;3.38;;;;;;;;;;5029955;28;20111;-76
2022/01/27 11:36:38;;;;;;;12.85;2.85;;;;;;;;;;5013985;28;20045;-76
2022/01/27 11:39:08;;;;;;;20.77;3.63;;;;;;;;;;5046414;28;20056;-76
2022/01/27 11:41:40;;;;;;;21.92;4.00;;;;;;;;;;5069400;28;20045;-76
2022/01/27 11:44:22;;;;;;;14.90;3.58;;;;;;;;;;5067754;28;20044;-76
2022/01/27 11:47:07;;;;;;;14.30;3.95;;;;;;;;;;5068459;28;20091;-77
2022/01/27 11:50:17;;;;;;;16.40;4.15;;;;;;;;;;5068594;28;20400;-76
2022/01/27 11:52:53;;;;;;;14.93;3.10;;;;;;;;;;5068001;28;20508;-76
2022/01/27 11:55:26;;;;;;;12.48;2.97;;;;;;;;;;5067828;28;20051;-76
2022/01/27 11:57:53;;;;;;;16.50;3.10;;;;;;;;;;5068345;28;20040;-76
2022/01/27 12:00:20;;;;;;;18.90;3.45;;;;;;;;;;5067519;28;20143;-76
2022/01/27 12:03:01;;;;;;;15.13;3.38;;;;;;;;;;5067929;28;20049;-75
2022/01/27 12:05:46;;;;;;;12.57;2.90;;;;;;;;;;5068827;28;20049;-76
2022/01/27 12:08:15;;;;;;;16.90;3.88;;;;;;;;;;5050944;28;20056;-76
2022/01/27 12:10:46;;;;;;;14.70;3.70;;;;;;;;;;5068081;28;20481;-76
2022/01/27 12:13:34;;;;;;;17.05;3.20;;;;;;;;;;5067345;28;20052;-76
2022/01/27 12:18:59;;;;;;;19.00;3.15;;;;;;;;;;5069044;28;20048;-76
2022/01/27 12:21:36;;;;;;;20.95;3.13;;;;;;;;;;5067494;28;20673;-76
2022/01/27 12:26:47;;;;;;;15.90;2.72;;;;;;;;;;5068001;28;20056;-76
2022/01/27 12:29:21;;;;;;;13.75;3.08;;;;;;;;;;5068396;28;20491;-76
2022/01/27 12:31:47;;;;;;;16.77;3.17;;;;;;;;;;5067780;28;20528;-76
2022/01/27 12:34:13;;;;;;;16.40;3.10;;;;;;;;;;5067167;28;20442;-76
2022/01/27 12:36:39;;;;;;;19.95;3.15;;;;;;;;;;5067486;28;20041;-76
2022/01/27 12:39:05;;;;;;;18.35;3.10;;;;;;;;;;5069803;28;20040;-76
2022/01/27 12:41:38;;;;;;;14.85;2.30;;;;;;;;;;5071415;28;20062;-76
2022/01/27 12:44:11;;;;;;;21.23;3.38;;;;;;;;;;5071827;28;20044;-76
2022/01/27 12:46:37;;;;;;;17.40;2.97;;;;;;;;;;5071744;28;20032;-76
2022/01/27 12:49:04;;;;;;;21.42;3.03;;;;;;;;;;5071649;28;20051;-76
2022/01/27 12:51:46;;;;;;;17.83;3.28;;;;;;;;;;5071378;28;20487;-76
2022/01/27 12:54:14;;;;;;;16.88;2.92;;;;;;;;;;5054067;28;20059;-76
2022/01/27 12:56:40;;;;;;;18.08;2.78;;;;;;;;;;5071600;28;20036;-76
2022/01/27 12:59:14;;;;;;;15.20;2.67;;;;;;;;;;5054945;28;20043;-76
2022/01/27 13:01:40;;;;;;;15.88;2.50;;;;;;;;;;5071357;28;20403;-76
2022/01/27 13:04:06;;;;;;;15.50;2.70;;;;;;;;;;5071519;28;20492;-76
2022/01/27 13:06:32;;;;;;;19.08;3.40;;;;;;;;;;5071518;28;20551;-76
2022/01/27 13:09:11;;;;;;;21.92;3.75;;;;;;;;;;5071218;28;20123;-76
2022/01/27 13:11:39;;;;;;;15.35;2.72;;;;;;;;;;5072771;28;20110;-76
2022/01/27 13:14:08;;;;;;;14.55;2.60;;;;;;;;;;5071168;28;20122;-76
2022/01/27 13:16:42;;;;;;;21.85;3.00;;;;;;;;;;5070989;28;20443;-76
2022/01/27 13:19:22;;;;;;;19.27;3.25;;;;;;;;;;5053923;28;20056;-77
2022/01/27 13:21:58;;;;;;;19.98;2.80;;;;;;;;;;5070715;28;20126;-76
2022/01/27 13:24:26;;;;;;;;;;;;;;;;;;5054299;28;20055;-76
2022/01/27 13:27:03;;;;;;;12.32;2.83;;;;;;;;;;5070245;28;19916;-76
2022/01/27 13:29:29;;;;;;;17.55;2.70;;;;;;;;;;5070535;28;20040;-76
2022/01/27 13:31:56;;;;;;;20.30;2.53;;;;;;;;;;5054272;28;20041;-76
2022/01/27 13:34:23;;;;;;;16.60;2.65;;;;;;;;;;5037174;28;20052;-76
2022/01/27 13:37:02;;;;;;;20.27;2.60;;;;;;;;;;5053907;28;20040;-76
2022/01/27 13:42:15;;;;;;;15.25;2.75;;;;;;;;;;5070185;28;20439;-76
2022/01/27 13:44:58;;;;;;;21.45;3.10;;;;;;;;;;5070913;28;20535;-76
2022/01/27 13:47:30;;;;;;;22.77;3.20;;;;;;;;;;5053273;28;20037;-76
2022/01/27 13:50:15;;;;;;;15.80;3.13;;;;;;;;;;5069618;28;20049;-76
2022/01/27 13:52:45;;;;;;;15.98;3.53;;;;;;;;;;5053759;28;20064;-76
2022/01/27 13:55:16;;;;;;;17.95;2.45;;;;;;;;;;5053419;28;20107;-76
2022/01/27 13:57:52;;;;;;;15.60;2.28;;;;;;;;;;5070423;28;20056;-76
2022/01/27 14:00:22;;;;;;;24.70;3.35;;;;;;;;;;5069918;28;20139;-76
2022/01/27 14:02:53;;;;;;;19.20;2.58;;;;;;;;;;5070113;28;20128;-76
2022/01/27 14:05:21;;;;;;;17.83;3.13;;;;;;;;;;5069611;28;20167;-76
2022/01/27 14:07:55;;;;;;;15.68;2.75;;;;;;;;;;5070121;28;20053;-76
2022/01/27 14:10:23;;;;;;;15.77;2.25;;;;;;;;;;5069495;28;20047;-76
2022/01/27 14:13:03;;;;;;;20.58;3.25;;;;;;;;;;5069718;28;20056;-76
2022/01/27 14:15:31;;;;;;;18.50;2.95;;;;;;;;;;5053000;28;20518;-76
2022/01/27 14:17:58;;;;;;;16.83;2.38;;;;;;;;;;5069873;28;20049;-76
2022/01/27 14:20:24;;;;;;;20.08;2.33;;;;;;;;;;5069092;28;20530;-76
2022/01/27 14:23:01;;;;;;;15.45;2.50;;;;;;;;;;5069640;28;20078;-76
2022/01/27 14:25:36;;;;;;;19.42;2.45;;;;;;;;;;5069571;28;20084;-76
2022/01/27 14:28:10;;;;;;;17.40;2.72;;;;;;;;;;5069469;28;20040;-76
2022/01/27 14:30:36;;;;;;;19.00;2.55;;;;;;;;;;5053100;28;20066;-76
2022/01/27 14:33:02;;;;;;;13.52;2.63;;;;;;;;;;5069733;28;20136;-76
2022/01/27 14:35:29;;;;;;;15.98;2.05;;;;;;;;;;5068999;28;20067;-76
2022/01/27 14:37:57;;;;;;;17.50;2.78;;;;;;;;;;5070624;28;20071;-77
2022/01/27 14:40:24;;;;;;;20.42;2.90;;;;;;;;;;5053031;28;20260;-76
2022/01/27 14:42:51;;;;;;;15.15;2.10;;;;;;;;;;5069125;28;20051;-76
2022/01/27 14:45:20;;;;;;;17.52;2.17;;;;;;;;;;5070629;28;20062;-76
2022/01/27 14:47:46;;;;;;;14.85;2.20;;;;;;;;;;5069300;28;20036;-76
2022/01/27 14:50:14;;;;;;;19.08;2.38;;;;;;;;;;5068938;28;20040;-76
2022/01/27 14:52:43;;;;;;;17.40;2.63;;;;;;;;;;5052913;28;20079;-76
2022/01/27 14:55:13;;;;;;;17.48;2.22;;;;;;;;;;5052924;28;20207;-76
2022/01/27 14:57:40;;;;;;;15.75;2.50;;;;;;;;;;5069093;28;20124;-76
2022/01/27 15:00:07;;;;;;;24.58;3.20;;;;;;;;;;5035897;28;20874;-76
2022/01/27 15:02:33;;;;;;;22.33;2.90;;;;;;;;;;5051838;28;20408;-76
2022/01/27 15:04:59;;;;;;;13.98;2.85;;;;;;;;;;5069091;28;20036;-76
2022/01/27 15:07:25;;;;;;;17.92;2.90;;;;;;;;;;5052111;28;20365;-76
2022/01/27 15:09:51;;;;;;;23.00;3.53;;;;;;;;;;5070514;28;20036;-76
2022/01/27 15:12:17;;;;;;;16.17;2.78;;;;;;;;;;5051785;28;20059;-76
2022/01/27 15:20:13;;;;;;;12.45;2.63;;;;;;;;;;5068377;28;20083;-76
2022/01/27 15:22:39;;;;;;;25.95;3.00;;;;;;;;;;5068650;28;20059;-76
2022/01/27 15:25:06;;;;;;;18.65;2.65;;;;;;;;;;5068403;28;20043;-76
2022/01/27 15:27:32;;;;;;;17.52;2.35;;;;;;;;;;5067598;28;20094;-76
2022/01/27 15:29:58;;;;;;;19.08;2.50;;;;;;;;;;5067967;28;20037;-76
2022/01/27 15:32:24;;;;;;;17.90;2.20;;;;;;;;;;5069173;28;20063;-76
2022/01/27 15:34:52;;;;;;;21.73;2.58;;;;;;;;;;5051837;28;20098;-76
2022/01/27 15:37:18;;;;;;;14.52;2.05;;;;;;;;;;5068137;28;20098;-76